Time;durP1;ratioP1;P1;durP2;ratioP2;P2;SDS_P1;SDS_P2;PMS_P1;PMS_P2;Temp;Humidity;BMP_temperature;BMP_pressure;BME280_temperature;BME280_humidity;BME280_pressure;Samples;Min_cycle;Max_cycle;Signal;HPM_P1;HPM_P2
2021/06/18 00:00:13;;;;;;;4.40;2.23;;;;;;;19.67;58.02;100022.61;129811;1093;23399;-69
2021/06/18 00:02:43;;;;;;;4.33;1.80;;;;;;;19.67;58.14;100016.27;129663;1093;114789;-69
2021/06/18 00:05:12;;;;;;;4.50;2.10;;;;;;;19.66;58.01;100014.63;129834;1093;22551;-68
2021/06/18 00:07:42;;;;;;;2.95;2.03;;;;;;;19.66;58.20;100014.63;129785;1093;114284;-68
2021/06/18 00:10:12;;;;;;;3.30;1.95;;;;;;;19.63;57.77;100012.46;129851;1093;22545;-68
2021/06/18 00:12:42;;;;;;;3.83;2.07;;;;;;;19.61;57.93;100011.98;129859;1093;22571;-68
2021/06/18 00:15:11;;;;;;;4.55;1.98;;;;;;;19.59;57.85;100003.98;129659;1093;114055;-69
2021/06/18 00:17:40;;;;;;;4.70;2.23;;;;;;;19.57;57.77;100008.17;129895;1093;22506;-68
2021/06/18 00:20:10;;;;;;;2.98;2.10;;;;;;;19.55;57.90;100004.89;129687;1093;113798;-68
2021/06/18 00:22:39;;;;;;;3.33;2.15;;;;;;;19.51;58.02;100001.09;129937;1092;22624;-68
2021/06/18 00:25:10;;;;;;;3.60;2.20;;;;;;;19.47;57.78;100013.88;129853;1093;23324;-65
2021/06/18 00:27:38;;;;;;;3.45;2.33;;;;;;;19.44;57.65;100004.24;129766;1093;113550;-65
2021/06/18 00:30:08;;;;;;;5.75;2.13;;;;;;;19.42;57.90;100004.55;129775;1093;23386;-66
2021/06/18 00:32:38;;;;;;;6.73;2.10;;;;;;;19.39;58.12;100010.67;129762;1093;114802;-65
2021/06/18 00:35:07;;;;;;;2.78;1.68;;;;;;;19.36;57.91;100007.69;129773;1093;23289;-65
2021/06/18 00:37:35;;;;;;;2.13;1.60;;;;;;;19.35;58.24;100008.81;130351;1087;114981;-65
2021/06/18 00:40:05;;;;;;;7.43;2.00;;;;;;;19.32;58.52;100014.97;130433;1087;22538;-66
2021/06/18 00:42:33;;;;;;;7.65;2.30;;;;;;;19.28;58.65;100014.75;130481;1087;22576;-65
2021/06/18 00:45:01;;;;;;;2.10;1.70;;;;;;;19.26;58.26;100021.70;130339;1087;114268;-65
2021/06/18 00:47:30;;;;;;;4.20;2.00;;;;;;;19.22;58.57;100021.48;130509;1087;22590;-65
2021/06/18 00:49:58;;;;;;;4.95;2.53;;;;;;;19.20;58.69;100011.84;130424;1087;114283;-65
2021/06/18 00:52:27;;;;;;;9.43;2.78;;;;;;;19.17;58.96;100009.72;130456;1087;22559;-65
2021/06/18 00:54:55;;;;;;;4.53;2.45;;;;;;;19.14;59.05;100007.55;130502;1087;22535;-64
2021/06/18 00:57:23;;;;;;;3.53;2.00;;;;;;;19.11;59.12;100003.45;126095;1087;113857;-71
2021/06/18 00:59:52;;;;;;;4.33;2.50;;;;;;;19.07;59.09;99999.64;130418;1088;23123;-68
2021/06/18 01:02:20;;;;;;;4.38;2.00;;;;;;;19.05;59.59;99993.59;130327;1087;113628;-69
2021/06/18 01:04:49;;;;;;;3.93;2.45;;;;;;;19.01;59.71;99989.82;130515;1087;23452;-68
2021/06/18 01:07:19;;;;;;;2.75;2.20;;;;;;;18.97;59.47;100003.41;130364;1087;115221;-68
2021/06/18 01:10:12;;;;;;;6.60;2.70;;;;;;;18.96;59.69;99993.48;130475;1087;22556;-69
2021/06/18 01:13:12;;;;;;;3.05;2.00;;;;;;;18.94;59.57;99990.20;130481;1090;22585;-69
2021/06/18 01:15:40;;;;;;;;;;;;;;;18.90;59.75;100000.19;130419;1090;113585;-69
2021/06/18 01:18:12;;;;;;;3.78;2.08;;;;;;;18.88;59.93;100009.92;130450;1090;22076;-69
2021/06/18 01:20:50;;;;;;;2.93;1.78;;;;;;;18.86;60.00;100009.41;130401;1087;113709;-69
2021/06/18 01:23:24;;;;;;;2.60;2.00;;;;;;;18.83;60.21;99993.44;130436;1088;22534;-69
2021/06/18 01:26:01;;;;;;;4.05;2.03;;;;;;;18.80;59.99;99996.78;130350;1088;116272;-69
2021/06/18 01:28:50;;;;;;;8.15;2.35;;;;;;;18.75;60.13;99994.95;130410;1087;22576;-69
2021/06/18 01:31:36;;;;;;;4.70;1.95;;;;;;;18.70;60.00;99995.02;130490;1090;22542;-69
2021/06/18 01:34:18;;;;;;;3.33;2.08;;;;;;;18.65;60.24;99986.81;130422;1089;22577;-69
2021/06/18 01:36:48;;;;;;;7.08;2.20;;;;;;;18.59;60.42;99988.84;130494;1090;22659;-69
2021/06/18 01:39:17;;;;;;;3.73;2.00;;;;;;;18.56;60.46;99991.34;130365;1088;113577;-69
2021/06/18 01:41:46;;;;;;;7.98;2.45;;;;;;;18.52;60.74;99988.36;130494;1089;22522;-68
2021/06/18 01:44:14;;;;;;;5.50;2.28;;;;;;;18.50;60.87;99995.28;130300;1090;113987;-69
2021/06/18 01:46:42;;;;;;;6.33;2.63;;;;;;;18.46;60.66;99981.29;130456;1089;22530;-69
2021/06/18 01:49:12;;;;;;;7.28;2.70;;;;;;;18.43;60.84;99976.36;130456;1090;22573;-69
2021/06/18 01:51:42;;;;;;;4.43;2.63;;;;;;;18.40;61.17;99971.44;130377;1087;113740;-69
2021/06/18 01:54:10;;;;;;;4.45;2.65;;;;;;;18.37;60.92;99978.37;130474;1089;22613;-69
2021/06/18 01:56:40;;;;;;;7.55;2.13;;;;;;;18.35;61.28;99972.32;130392;1087;113576;-69
2021/06/18 01:59:09;;;;;;;7.43;2.03;;;;;;;18.35;61.01;99974.26;130412;1090;22582;-68
2021/06/18 02:01:40;;;;;;;5.85;1.78;;;;;;;18.34;60.91;99980.89;130490;1090;22499;-69
2021/06/18 02:04:09;;;;;;;4.33;2.10;;;;;;;18.34;61.20;99976.20;130343;1089;113317;-69
2021/06/18 02:06:38;;;;;;;5.80;2.20;;;;;;;18.35;61.13;99975.08;127553;1090;22806;-69
2021/06/18 02:09:06;;;;;;;3.90;2.13;;;;;;;18.35;60.87;99971.50;130231;1089;114162;-69
2021/06/18 02:11:36;;;;;;;2.43;1.85;;;;;;;18.34;60.93;99976.20;130476;1090;22550;-69
2021/06/18 02:14:09;;;;;;;2.48;1.58;;;;;;;18.33;60.80;99974.55;130337;1088;113588;-69
2021/06/18 02:16:39;;;;;;;3.08;2.10;;;;;;;18.33;61.11;99973.73;130524;1088;22592;-70
2021/06/18 02:19:08;;;;;;;4.98;2.35;;;;;;;18.33;60.88;99976.49;130438;1090;22618;-70
2021/06/18 02:21:36;;;;;;;3.03;1.90;;;;;;;18.31;60.80;99976.00;130369;1088;113844;-69
2021/06/18 02:24:05;;;;;;;5.70;2.15;;;;;;;18.30;60.88;99975.17;130441;1089;22619;-70
2021/06/18 02:26:34;;;;;;;5.03;1.95;;;;;;;18.29;60.99;99979.05;130354;1090;114046;-69
2021/06/18 02:29:02;;;;;;;13.25;2.23;;;;;;;18.29;60.97;99983.74;130431;1090;22619;-70
2021/06/18 02:31:31;;;;;;;6.70;1.95;;;;;;;18.27;60.76;99981.28;130485;1088;22558;-70
2021/06/18 02:33:59;;;;;;;6.23;1.80;;;;;;;18.27;60.82;99981.28;130363;1089;114050;-70
2021/06/18 02:36:27;;;;;;;4.98;1.70;;;;;;;18.27;60.63;99977.70;130437;1087;22521;-70
2021/06/18 02:38:56;;;;;;;5.83;1.93;;;;;;;18.29;60.58;99994.78;130399;1089;114734;-69
2021/06/18 02:41:25;;;;;;;2.75;1.70;;;;;;;18.30;60.66;99988.14;130436;1090;23119;-69
2021/06/18 02:43:53;;;;;;;7.00;2.53;;;;;;;18.30;60.81;99988.97;130367;1090;113900;-69
2021/06/18 02:46:35;;;;;;;4.08;1.88;;;;;;;18.32;60.68;99994.19;130444;1087;22583;-69
2021/06/18 02:49:05;;;;;;;3.90;1.95;;;;;;;18.32;60.70;99994.19;130478;1088;22539;-69
2021/06/18 02:51:47;;;;;;;4.63;2.25;;;;;;;18.31;60.68;99987.03;130333;1090;113820;-69
2021/06/18 02:54:37;;;;;;;3.55;2.18;;;;;;;18.32;60.76;100003.26;130479;1087;22518;-69
2021/06/18 02:57:08;;;;;;;5.85;1.85;;;;;;;18.31;60.69;100003.58;130391;1087;114118;-70
2021/06/18 02:59:47;;;;;;;3.20;2.20;;;;;;;18.30;61.13;100011.03;130513;1090;23030;-69
2021/06/18 03:02:17;;;;;;;6.08;1.88;;;;;;;18.31;60.96;100003.58;130267;1089;114274;-69
2021/06/18 03:04:45;;;;;;;5.17;2.07;;;;;;;18.32;61.27;100006.02;130499;1087;23453;-70
2021/06/18 03:07:18;;;;;;;5.38;1.90;;;;;;;18.35;61.26;100007.36;130433;1087;22581;-66
2021/06/18 03:09:49;;;;;;;7.78;2.30;;;;;;;18.37;60.95;100010.66;130362;1087;114023;-66
2021/06/18 03:12:18;;;;;;;4.20;1.88;;;;;;;18.39;60.78;100005.66;130418;1089;22583;-66
2021/06/18 03:14:46;;;;;;;6.25;2.78;;;;;;;18.41;60.54;100011.70;130378;1089;114030;-66
2021/06/18 03:17:18;;;;;;;6.33;2.10;;;;;;;18.44;60.48;100010.30;130460;1090;22577;-65
2021/06/18 03:19:52;;;;;;;8.73;2.10;;;;;;;18.46;60.57;100014.41;130363;1087;115659;-66
2021/06/18 03:22:21;;;;;;;3.45;2.05;;;;;;;18.47;60.32;100010.49;130437;1087;23527;-66
2021/06/18 03:24:50;;;;;;;3.53;1.80;;;;;;;18.48;60.06;100012.14;130471;1087;22554;-66
2021/06/18 03:27:22;;;;;;;4.70;1.98;;;;;;;18.46;60.21;100008.88;130318;1087;114007;-66
2021/06/18 03:29:51;;;;;;;2.63;1.90;;;;;;;18.47;60.10;100009.67;130489;1090;22553;-66
2021/06/18 03:32:20;;;;;;;3.30;1.98;;;;;;;18.48;60.22;100014.89;130302;1089;114350;-66
2021/06/18 03:34:48;;;;;;;6.95;1.80;;;;;;;18.48;60.34;100011.31;130469;1087;23157;-65
2021/06/18 03:37:17;;;;;;;6.75;1.70;;;;;;;18.48;60.01;100012.14;130432;1089;22535;-69
2021/06/18 03:39:46;;;;;;;4.73;2.10;;;;;;;18.48;60.17;100012.14;130387;1087;113976;-69
2021/06/18 03:42:15;;;;;;;6.15;2.03;;;;;;;18.47;60.14;100010.49;130466;1087;22551;-69
2021/06/18 03:44:43;;;;;;;3.20;1.65;;;;;;;18.48;60.44;100011.31;130414;1087;113835;-69
2021/06/18 03:47:12;;;;;;;3.23;2.10;;;;;;;18.51;60.54;100019.00;130424;1087;22542;-69
2021/06/18 03:49:43;;;;;;;10.78;2.18;;;;;;;18.53;60.25;100020.36;130490;1087;22537;-70
2021/06/18 03:52:11;;;;;;;4.33;2.10;;;;;;;18.54;60.32;100007.38;130364;1087;113889;-69
2021/06/18 03:54:40;;;;;;;4.05;1.80;;;;;;;18.56;60.46;100017.00;130445;1087;22657;-69
2021/06/18 03:57:08;;;;;;;5.13;1.87;;;;;;;18.58;60.55;100009.28;130404;1087;113993;-69
2021/06/18 03:59:37;;;;;;;3.85;1.83;;;;;;;18.60;60.22;100014.50;130455;1088;23376;-69
2021/06/18 04:02:06;;;;;;;6.05;1.90;;;;;;;18.61;60.37;100018.91;130351;1087;114460;-70
2021/06/18 04:04:35;;;;;;;6.88;1.93;;;;;;;18.62;60.52;100018.58;130429;1087;22561;-70
2021/06/18 04:07:06;;;;;;;3.88;1.75;;;;;;;18.66;60.66;100024.33;126781;1090;22775;-69
2021/06/18 04:09:36;;;;;;;6.40;1.80;;;;;;;18.68;60.55;100020.16;125676;1087;114250;-69
2021/06/18 04:12:06;;;;;;;6.18;1.90;;;;;;;18.70;60.32;100023.44;125857;1088;22852;-69
2021/06/18 04:14:36;;;;;;;3.40;1.70;;;;;;;18.74;60.18;100028.38;125679;1087;114528;-69
2021/06/18 04:17:05;;;;;;;4.35;1.75;;;;;;;18.75;60.67;100025.31;130497;1087;22559;-70
2021/06/18 04:19:34;;;;;;;2.85;1.80;;;;;;;18.78;60.76;100021.11;130347;1087;22717;-71
2021/06/18 04:22:04;;;;;;;4.95;1.85;;;;;;;18.83;60.63;100032.91;130356;1087;113932;-71
2021/06/18 04:24:33;;;;;;;5.60;1.65;;;;;;;18.85;60.35;100027.09;130461;1087;22538;-70
2021/06/18 04:27:02;;;;;;;6.30;2.05;;;;;;;18.87;60.49;100033.95;130366;1087;114270;-70
2021/06/18 04:29:30;;;;;;;7.23;2.00;;;;;;;18.90;60.37;100032.54;130425;1087;23369;-70
2021/06/18 04:31:59;;;;;;;4.68;2.00;;;;;;;18.94;60.43;100028.85;130388;1087;114437;-70
2021/06/18 04:34:27;;;;;;;3.90;1.90;;;;;;;18.94;60.20;100023.33;130433;1087;23801;-70
2021/06/18 04:36:56;;;;;;;6.58;1.85;;;;;;;18.99;60.44;100025.20;130504;1087;22552;-70
2021/06/18 04:39:24;;;;;;;7.25;2.08;;;;;;;19.01;60.37;100029.30;130310;1086;113913;-70
2021/06/18 04:41:53;;;;;;;4.48;2.05;;;;;;;19.03;60.12;100015.20;130519;1087;22594;-70
2021/06/18 04:44:22;;;;;;;4.90;2.00;;;;;;;19.06;60.30;100014.57;130306;1087;114164;-70
2021/06/18 04:46:50;;;;;;;11.18;2.18;;;;;;;19.09;60.04;100019.50;130482;1087;22551;-70
2021/06/18 04:49:19;;;;;;;5.20;2.08;;;;;;;19.13;59.89;100012.25;130485;1087;22560;-70
2021/06/18 04:51:47;;;;;;;12.98;2.45;;;;;;;19.19;60.43;100027.59;130298;1087;114214;-70
2021/06/18 04:54:15;;;;;;;6.33;2.38;;;;;;;19.24;60.55;100022.00;130098;1088;22550;-70
2021/06/18 04:56:44;;;;;;;7.05;2.05;;;;;;;19.33;60.55;100028.45;130331;1087;114020;-70
2021/06/18 04:59:12;;;;;;;13.53;2.15;;;;;;;19.42;60.12;100031.36;130484;1087;22517;-70
2021/06/18 05:01:41;;;;;;;5.58;2.05;;;;;;;19.50;59.83;100027.09;130462;1087;22558;-70
2021/06/18 05:04:09;;;;;;;3.55;2.03;;;;;;;19.57;59.86;100036.64;130369;1086;113767;-70
2021/06/18 05:06:38;;;;;;;4.03;2.03;;;;;;;19.66;60.07;100029.27;130409;1087;22575;-70
2021/06/18 05:09:07;;;;;;;4.38;2.18;;;;;;;19.75;59.79;100021.92;130375;1087;114063;-69
2021/06/18 05:11:35;;;;;;;3.68;2.15;;;;;;;19.83;59.38;100016.78;130391;1089;22590;-70
2021/06/18 05:14:03;;;;;;;5.18;2.30;;;;;;;19.91;59.17;100016.88;130407;1087;114319;-70
2021/06/18 05:16:31;;;;;;;7.93;2.23;;;;;;;20.04;59.50;100006.95;130435;1087;22547;-70
2021/06/18 05:19:00;;;;;;;7.00;2.05;;;;;;;20.20;59.25;100002.70;130468;1087;22489;-70
2021/06/18 05:21:28;;;;;;;8.88;2.25;;;;;;;20.37;58.97;99991.84;130346;1086;114333;-70
2021/06/18 05:23:57;;;;;;;8.10;1.90;;;;;;;20.58;58.72;99991.39;130530;1087;22562;-70
2021/06/18 05:26:25;;;;;;;8.05;2.28;;;;;;;20.80;57.91;99997.75;130346;1085;115625;-70
2021/06/18 05:28:53;;;;;;;4.93;2.68;;;;;;;21.03;57.14;99989.45;130485;1087;22573;-70
2021/06/18 05:31:22;;;;;;;8.15;2.38;;;;;;;21.19;56.90;99993.50;130435;1087;22582;-70
2021/06/18 05:33:51;;;;;;;6.55;2.28;;;;;;;21.35;56.60;99988.38;130422;1087;113740;-70
2021/06/18 05:36:30;;;;;;;5.60;2.20;;;;;;;21.48;56.16;99990.23;127778;1087;22782;-70
2021/06/18 05:38:58;;;;;;;9.95;2.68;;;;;;;21.58;56.22;99989.95;130232;1087;113745;-70
2021/06/18 05:41:27;;;;;;;10.48;2.88;;;;;;;21.73;55.68;99992.30;130473;1087;22551;-70
2021/06/18 05:43:55;;;;;;;18.10;3.43;;;;;;;21.84;55.97;99987.27;130338;1087;114072;-70
2021/06/18 05:46:24;;;;;;;10.97;2.87;;;;;;;21.96;55.54;99994.97;130498;1085;22554;-70
2021/06/18 05:48:52;;;;;;;10.38;2.15;;;;;;;22.06;55.09;99989.98;130450;1087;22548;-70
2021/06/18 05:51:20;;;;;;;7.88;2.55;;;;;;;22.11;55.11;99992.59;130349;1087;114907;-70
2021/06/18 05:53:49;;;;;;;6.13;2.28;;;;;;;22.19;54.76;99989.03;130441;1087;22573;-70
2021/06/18 05:56:17;;;;;;;7.00;2.18;;;;;;;22.26;54.85;99990.50;130388;1087;114008;-70
2021/06/18 05:58:45;;;;;;;13.15;2.30;;;;;;;22.26;54.62;99993.27;130425;1087;22985;-70
2021/06/18 06:01:14;;;;;;;4.28;2.30;;;;;;;22.24;54.65;99996.38;130483;1086;22548;-70
2021/06/18 06:03:59;;;;;;;7.08;2.08;;;;;;;22.24;54.38;99988.05;130296;1087;113771;-70
2021/06/18 06:06:28;;;;;;;15.93;2.50;;;;;;;22.25;54.79;100003.56;130485;1087;22597;-70
2021/06/18 06:08:56;;;;;;;6.05;2.00;;;;;;;22.21;54.17;99997.04;130306;1087;114393;-70
2021/06/18 06:11:25;;;;;;;7.78;2.00;;;;;;;22.20;54.25;99996.22;130514;1087;23695;-70
2021/06/18 06:14:01;;;;;;;4.67;1.60;;;;;;;22.17;54.46;99998.82;130313;1087;113860;-69
2021/06/18 06:16:36;;;;;;;11.70;2.68;;;;;;;22.15;54.34;99998.32;130526;1087;22550;-70
2021/06/18 06:19:04;;;;;;;4.18;2.13;;;;;;;22.12;54.46;100001.73;130430;1087;22523;-70
2021/06/18 06:21:33;;;;;;;9.03;2.50;;;;;;;22.09;54.18;100000.42;130366;1089;114181;-70
2021/06/18 06:24:01;;;;;;;4.63;2.10;;;;;;;22.07;54.18;99997.17;130464;1087;23790;-70
2021/06/18 06:26:30;;;;;;;4.20;2.23;;;;;;;22.06;54.64;99998.31;130370;1087;113986;-70
2021/06/18 06:28:58;;;;;;;5.05;2.50;;;;;;;22.08;55.03;99990.45;130409;1087;22557;-70
2021/06/18 06:31:28;;;;;;;10.58;2.70;;;;;;;22.14;54.91;99991.95;130467;1085;23425;-70
2021/06/18 06:33:56;;;;;;;4.38;2.28;;;;;;;22.19;54.74;99994.59;130323;1087;113906;-70
2021/06/18 06:36:24;;;;;;;14.85;2.23;;;;;;;22.23;54.88;99989.18;130478;1087;23497;-70
2021/06/18 06:38:54;;;;;;;9.25;2.15;;;;;;;22.28;54.41;99982.67;130320;1087;113850;-70
2021/06/18 06:41:22;;;;;;;5.25;2.25;;;;;;;22.28;54.44;99989.04;130488;1087;22561;-70
2021/06/18 06:43:50;;;;;;;8.23;2.40;;;;;;;22.31;54.13;99988.39;130423;1087;114120;-67
2021/06/18 06:46:21;;;;;;;3.33;2.00;;;;;;;22.32;54.56;99987.25;130438;1086;22553;-70
2021/06/18 06:48:49;;;;;;;8.48;2.50;;;;;;;22.36;55.20;99993.77;130438;1087;22556;-70
2021/06/18 06:51:18;;;;;;;7.98;2.03;;;;;;;22.41;54.87;99990.03;130248;1090;115867;-70
2021/06/18 06:53:46;;;;;;;8.00;2.53;;;;;;;22.44;54.88;99987.42;130475;1087;22525;-70
2021/06/18 06:56:15;;;;;;;5.80;1.80;;;;;;;22.51;55.17;99993.30;130343;1087;114309;-70
2021/06/18 06:58:44;;;;;;;7.53;2.45;;;;;;;22.56;54.79;99993.14;130465;1087;22538;-70
2021/06/18 07:01:12;;;;;;;5.85;2.13;;;;;;;22.61;54.45;99983.84;130419;1087;22567;-70
2021/06/18 07:03:41;;;;;;;6.03;2.75;;;;;;;22.68;54.33;99983.34;130381;1087;114020;-70
2021/06/18 07:06:13;;;;;;;3.40;2.00;;;;;;;22.74;54.02;99979.27;130422;1085;22680;-69
2021/06/18 07:08:42;;;;;;;12.60;2.33;;;;;;;22.81;54.07;99980.42;130380;1087;113805;-70
2021/06/18 07:11:10;;;;;;;8.78;2.75;;;;;;;22.86;53.62;99977.48;130459;1087;22601;-70
2021/06/18 07:13:38;;;;;;;6.93;2.50;;;;;;;22.90;53.71;99977.65;130496;1086;23063;-68
2021/06/18 07:16:08;;;;;;;3.63;2.08;;;;;;;22.94;53.82;99981.38;130345;1087;114423;-67
2021/06/18 07:18:37;;;;;;;10.63;2.35;;;;;;;23.04;53.81;99971.91;130455;1087;22540;-67
2021/06/18 07:21:05;;;;;;;10.05;2.35;;;;;;;23.12;53.07;99971.05;130356;1085;114004;-67
2021/06/18 07:23:40;;;;;;;7.10;2.68;;;;;;;23.18;52.88;99965.00;126905;1087;23351;-65
2021/06/18 07:26:08;;;;;;;4.20;2.00;;;;;;;23.26;53.53;99972.49;125390;1090;114913;-64
2021/06/18 07:28:36;;;;;;;5.13;2.78;;;;;;;23.32;53.96;99973.14;125494;1088;22815;-65
2021/06/18 07:31:05;;;;;;;8.55;2.83;;;;;;;23.42;52.97;99969.99;130427;1089;22612;-66
2021/06/18 07:33:35;;;;;;;11.55;2.80;;;;;;;23.54;52.92;99964.57;130031;1090;115208;-65
2021/06/18 07:36:04;;;;;;;8.75;2.40;;;;;;;23.63;52.29;99963.73;130415;1090;22559;-63
2021/06/18 07:38:32;;;;;;;8.38;2.08;;;;;;;23.68;52.46;99958.78;130375;1089;113971;-63
2021/06/18 07:41:00;;;;;;;6.65;1.83;;;;;;;23.73;52.42;99969.73;130464;1090;23680;-62
2021/06/18 07:44:07;;;;;;;6.30;2.03;;;;;;;23.76;52.44;99965.47;130103;1090;22527;-62
2021/06/18 07:47:06;;;;;;;7.70;1.80;;;;;;;23.83;52.32;99979.66;125470;1093;22811;-62
2021/06/18 07:49:35;;;;;;;5.30;2.08;;;;;;;23.85;52.57;99972.62;130084;1092;22684;-63
2021/06/18 07:52:03;;;;;;;6.25;2.35;;;;;;;23.91;52.24;99973.25;129832;1093;113821;-63
2021/06/18 07:54:32;;;;;;;4.33;1.93;;;;;;;23.94;51.61;99981.75;130022;1093;22589;-63
2021/06/18 07:57:00;;;;;;;5.38;2.53;;;;;;;23.98;51.43;99982.69;129904;1092;113987;-63
2021/06/18 07:59:29;;;;;;;6.65;2.15;;;;;;;24.05;52.59;99993.31;130095;1093;22621;-64
2021/06/18 08:01:58;;;;;;;4.73;2.08;;;;;;;24.15;52.50;99992.91;130039;1092;23152;-63
2021/06/18 08:04:46;;;;;;;10.68;2.25;;;;;;;24.24;51.54;99993.70;129957;1093;114892;-63
2021/06/18 08:07:15;;;;;;;7.80;2.10;;;;;;;24.31;50.82;99996.78;129962;1092;22588;-64
2021/06/18 08:09:43;;;;;;;5.93;2.15;;;;;;;24.34;51.42;99995.29;129899;1093;114028;-64
2021/06/18 08:12:12;;;;;;;12.08;2.18;;;;;;;24.39;51.87;99986.72;130095;1093;22600;-63
2021/06/18 08:14:43;;;;;;;8.08;1.88;;;;;;;24.44;50.82;99994.06;129892;1092;114140;-64
2021/06/18 08:17:11;;;;;;;6.97;3.00;;;;;;;24.45;50.61;99992.91;130078;1093;22595;-64
2021/06/18 08:19:39;;;;;;;10.78;2.60;;;;;;;24.45;51.56;99985.38;130072;1093;22642;-64
2021/06/18 08:22:08;;;;;;;8.15;2.73;;;;;;;24.53;50.95;99980.88;129904;1093;114382;-63
2021/06/18 08:24:37;;;;;;;19.63;2.95;;;;;;;24.64;50.79;99990.48;129783;1093;22595;-64
2021/06/18 08:27:05;;;;;;;7.93;2.83;;;;;;;24.72;49.84;99989.58;129734;1092;114163;-66
2021/06/18 08:29:34;;;;;;;8.73;3.05;;;;;;;24.79;49.88;99992.64;129821;1093;23072;-67
2021/06/18 08:32:03;;;;;;;11.15;2.50;;;;;;;24.88;49.95;99992.56;129852;1093;22639;-67
2021/06/18 08:34:31;;;;;;;11.03;2.68;;;;;;;24.94;50.13;99994.84;129689;1093;114244;-67
2021/06/18 08:37:00;;;;;;;15.00;2.98;;;;;;;24.99;49.87;99991.00;129853;1093;22609;-67
2021/06/18 08:39:28;;;;;;;6.85;2.13;;;;;;;25.05;50.28;99998.01;129660;1093;113975;-67
2021/06/18 08:41:57;;;;;;;5.83;2.20;;;;;;;25.07;50.03;99994.88;129840;1093;22585;-67
2021/06/18 08:44:27;;;;;;;10.30;2.75;;;;;;;25.12;49.97;100000.22;129712;1092;113896;-66
2021/06/18 08:46:55;;;;;;;9.68;2.50;;;;;;;25.15;50.83;100000.36;129842;1093;22592;-66
2021/06/18 08:49:24;;;;;;;15.48;2.55;;;;;;;25.17;50.41;99995.25;129813;1092;22587;-67
2021/06/18 08:51:53;;;;;;;9.10;2.40;;;;;;;25.18;50.64;99996.07;129713;1092;114417;-67
2021/06/18 08:54:21;;;;;;;9.53;2.23;;;;;;;25.20;50.63;99993.76;129809;1092;22603;-67
2021/06/18 08:56:50;;;;;;;7.05;3.03;;;;;;;25.23;50.93;99985.52;126405;1092;114387;-66
2021/06/18 08:59:18;;;;;;;4.93;2.35;;;;;;;25.28;51.10;99998.41;125135;1092;27193;-66
2021/06/18 09:01:47;;;;;;;16.30;3.23;;;;;;;25.32;50.91;99993.78;129841;1093;23114;-67
2021/06/18 09:04:15;;;;;;;7.03;2.88;;;;;;;25.34;50.62;99995.08;129729;1093;114397;-66
2021/06/18 09:06:44;;;;;;;6.77;2.60;;;;;;;25.36;51.55;100003.92;129768;1093;22599;-67
2021/06/18 09:09:21;;;;;;;9.43;2.40;;;;;;;25.41;50.86;99993.67;129755;1093;114383;-66
2021/06/18 09:11:59;;;;;;;8.98;2.75;;;;;;;25.46;51.78;100001.84;129803;1093;23716;-67
2021/06/18 09:14:32;;;;;;;8.38;2.73;;;;;;;25.51;51.13;99994.07;129706;1093;114339;-67
2021/06/18 09:17:21;;;;;;;11.23;2.58;;;;;;;25.54;50.94;99982.19;129833;1092;22610;-67
2021/06/18 09:19:52;;;;;;;7.45;2.18;;;;;;;25.60;50.91;99980.00;129823;1093;22575;-67
2021/06/18 09:22:29;;;;;;;19.10;3.43;;;;;;;25.63;49.56;99994.11;129729;1093;113720;-67
2021/06/18 09:25:18;;;;;;;4.80;2.03;;;;;;;25.61;50.15;99992.80;129831;1093;22544;-67
2021/06/18 09:27:49;;;;;;;12.80;2.40;;;;;;;25.61;49.82;99987.21;129822;1093;113811;-64
2021/06/18 09:30:33;;;;;;;4.88;2.05;;;;;;;25.61;49.13;99988.06;130053;1092;22542;-63
2021/06/18 09:33:05;;;;;;;11.78;3.05;;;;;;;25.60;49.76;99993.95;129944;1093;114001;-65
2021/06/18 09:35:33;;;;;;;23.93;3.45;;;;;;;25.62;48.84;100000.86;130059;1092;22653;-64
2021/06/18 09:38:04;;;;;;;11.63;2.83;;;;;;;25.63;49.13;99988.53;130061;1093;23635;-64
2021/06/18 09:40:32;;;;;;;11.63;2.53;;;;;;;25.64;49.98;99992.14;129968;1093;113939;-64
2021/06/18 09:43:09;;;;;;;11.60;2.60;;;;;;;25.66;49.85;99990.63;129804;1093;22550;-64
2021/06/18 09:45:40;;;;;;;25.15;3.68;;;;;;;25.70;49.70;99994.34;129742;1093;113909;-63
2021/06/18 09:48:09;;;;;;;8.00;2.23;;;;;;;25.70;49.21;99985.97;130027;1092;23141;-63
2021/06/18 09:50:41;;;;;;;11.63;2.55;;;;;;;25.74;49.16;99974.11;129945;1092;114116;-64
2021/06/18 09:53:16;;;;;;;5.63;2.00;;;;;;;25.81;49.79;99975.17;130012;1093;23343;-63
2021/06/18 09:55:48;;;;;;;12.65;2.58;;;;;;;25.89;48.36;99965.86;129847;1092;22581;-67
2021/06/18 09:58:33;;;;;;;6.43;2.10;;;;;;;25.97;48.35;99952.95;129892;1093;113970;-67
2021/06/18 10:01:22;;;;;;;6.85;2.43;;;;;;;26.03;48.97;99959.91;130035;1093;22533;-67
2021/06/18 10:04:03;;;;;;;8.93;2.53;;;;;;;26.09;48.53;99963.30;129916;1093;113636;-67
2021/06/18 10:06:34;;;;;;;6.53;2.63;;;;;;;26.11;48.62;99958.17;130072;1092;23360;-68
2021/06/18 10:09:05;;;;;;;5.50;2.58;;;;;;;26.12;48.74;99946.63;129919;1093;114472;-68
2021/06/18 10:11:34;;;;;;;11.15;2.60;;;;;;;26.17;47.92;99951.98;130097;1093;23273;-68
2021/06/18 10:14:03;;;;;;;5.75;2.10;;;;;;;26.18;48.04;99961.98;130020;1093;22588;-68
2021/06/18 10:16:32;;;;;;;9.68;2.45;;;;;;;26.16;47.76;99958.73;129835;1093;113814;-68
2021/06/18 10:19:01;;;;;;;6.33;2.55;;;;;;;26.14;48.12;99960.23;130073;1093;22651;-67
2021/06/18 10:21:31;;;;;;;5.77;2.50;;;;;;;26.13;49.09;99953.02;129691;1092;114076;-67
2021/06/18 10:25:44;;;;;;;8.10;2.20;;;;;;;26.14;49.15;99961.05;125651;1092;25775;-62
2021/06/18 10:28:26;;;;;;;8.45;2.23;;;;;;;26.18;48.38;99958.38;124577;1096;114104;-62
2021/06/18 10:30:59;;;;;;;7.00;1.90;;;;;;;26.15;48.85;99959.89;129353;1096;22578;-62
2021/06/18 10:33:28;;;;;;;12.35;3.23;;;;;;;26.13;49.36;99948.25;129199;1096;113458;-63
2021/06/18 10:36:04;;;;;;;73.70;6.83;;;;;;;26.16;48.55;99955.94;129343;1097;23219;-63
2021/06/18 10:39:13;;;;;;;11.00;2.65;;;;;;;26.20;48.69;99964.44;129189;1095;113899;-63
2021/06/18 10:41:45;;;;;;;6.73;2.50;;;;;;;26.27;49.32;99948.69;128643;1100;22570;-63
2021/06/18 10:44:37;;;;;;;6.60;2.60;;;;;;;26.36;48.60;99951.40;128569;1100;23181;-63
2021/06/18 10:47:06;;;;;;;51.03;5.68;;;;;;;26.44;48.21;99947.64;128479;1100;113743;-63
2021/06/18 10:49:38;;;;;;;18.55;3.83;;;;;;;26.44;48.05;99953.23;128569;1100;22654;-64
2021/06/18 10:52:16;;;;;;;7.18;2.35;;;;;;;26.43;48.55;99948.80;128521;1098;115638;-63
2021/06/18 10:54:47;;;;;;;10.55;2.63;;;;;;;26.42;49.09;99941.58;128561;1098;22825;-63
2021/06/18 10:57:26;;;;;;;5.60;2.38;;;;;;;26.41;49.27;99937.16;128527;1100;114097;-63
2021/06/18 10:59:56;;;;;;;7.45;2.58;;;;;;;26.39;49.57;99943.13;128585;1100;22637;-63
2021/06/18 11:02:30;;;;;;;6.88;2.40;;;;;;;26.36;49.16;99931.84;128627;1098;22584;-63
2021/06/18 11:05:17;;;;;;;14.75;3.03;;;;;;;26.36;49.34;99934.63;128548;1096;114794;-64
2021/06/18 11:07:46;;;;;;;11.08;2.65;;;;;;;26.37;49.20;99928.70;129340;1095;22664;-63
2021/06/18 11:10:27;;;;;;;52.85;6.30;;;;;;;26.45;48.85;99940.88;129233;1096;114439;-63
2021/06/18 11:13:04;;;;;;;15.85;3.43;;;;;;;26.47;49.22;99932.15;129357;1096;23864;-63
2021/06/18 11:15:32;;;;;;;8.13;2.70;;;;;;;26.52;49.26;99927.13;129194;1095;113461;-63
2021/06/18 11:18:15;;;;;;;21.35;2.95;;;;;;;26.58;49.46;99928.49;129484;1093;22618;-63
2021/06/18 11:20:46;;;;;;;17.40;3.05;;;;;;;26.63;49.18;99924.64;129684;1092;114425;-63
2021/06/18 11:23:31;;;;;;;6.43;2.48;;;;;;;26.63;48.69;99927.44;129790;1093;23179;-63
2021/06/18 11:26:01;;;;;;;6.28;2.88;;;;;;;26.64;48.59;99929.06;129784;1093;23329;-63
2021/06/18 11:28:35;;;;;;;13.05;3.15;;;;;;;26.68;48.60;99927.19;129754;1092;113007;-64
2021/06/18 11:31:16;;;;;;;7.80;3.20;;;;;;;26.69;49.15;99926.03;129817;1093;22588;-63
2021/06/18 11:33:52;;;;;;;5.28;2.63;;;;;;;26.75;49.68;99930.99;129701;1091;114281;-63
2021/06/18 11:36:21;;;;;;;;;;;;;;;26.79;48.66;99924.70;127459;1097;24345;-63